createdAt,value
2018-02-20T00:00:10.374Z,100721.64
2018-02-20T00:02:40.237Z,100723.49
2018-02-20T00:05:09.348Z,100720.92
2018-02-20T00:07:38.453Z,100729.30
2018-02-20T00:10:07.573Z,100732.47
2018-02-20T00:12:38.247Z,100729.02
2018-02-20T00:15:07.371Z,100729.29
2018-02-20T00:17:36.476Z,100722.50
2018-02-20T00:20:05.609Z,100727.30
2018-02-20T00:22:34.706Z,100727.88
2018-02-20T00:25:04.579Z,100712.41
2018-02-20T00:27:33.675Z,100725.45
2018-02-20T00:30:02.810Z,100710.99
2018-02-20T00:32:31.907Z,100715.69
2018-02-20T00:35:01.030Z,100708.98
2018-02-20T00:37:30.133Z,100713.59
2018-02-20T00:39:59.225Z,100712.08
2018-02-20T00:42:28.398Z,100710.23
2018-02-20T00:44:58.262Z,100710.12
2018-02-20T00:47:27.393Z,100702.50
2018-02-20T00:49:57.271Z,100704.69
2018-02-20T00:52:27.253Z,100704.03
2018-02-20T00:54:56.338Z,100696.44
2018-02-20T00:57:26.249Z,100697.23
2018-02-20T00:59:56.128Z,100703.23
2018-02-20T01:02:25.450Z,100693.95
2018-02-20T01:04:55.306Z,100702.36
2018-02-20T01:07:24.413Z,100695.28
2018-02-20T01:09:53.506Z,100698.70
2018-02-20T01:12:22.640Z,100701.62
2018-02-20T01:14:51.848Z,100699.16
2018-02-20T01:17:20.916Z,100697.73
2018-02-20T01:19:50.052Z,100693.25
2018-02-20T01:22:19.903Z,100698.17
2018-02-20T01:24:49.021Z,100695.71
2018-02-20T01:27:18.111Z,100701.41
2018-02-20T01:29:48.013Z,100703.61
2018-02-20T01:32:17.106Z,100699.72
2018-02-20T01:34:46.230Z,100693.22
2018-02-20T01:37:15.313Z,100695.23
2018-02-20T01:39:44.430Z,100684.16
2018-02-20T01:42:13.527Z,100682.28
2018-02-20T01:44:42.665Z,100679.06
2018-02-20T01:47:11.764Z,100686.70
2018-02-20T01:49:40.860Z,100681.54
2018-02-20T01:52:09.970Z,100677.03
2018-02-20T01:54:39.078Z,100670.38
2018-02-20T01:57:08.196Z,100679.05
2018-02-20T01:59:37.286Z,100679.41
2018-02-20T02:02:06.403Z,100684.41
2018-02-20T02:04:36.269Z,100674.46
2018-02-20T02:07:05.417Z,100674.88
2018-02-20T02:09:34.506Z,100679.45
2018-02-20T02:12:03.607Z,100674.05
2018-02-20T02:14:32.712Z,100668.66
2018-02-20T02:17:02.569Z,100677.55
2018-02-20T02:19:31.778Z,100680.33
2018-02-20T02:22:00.915Z,100679.28
2018-02-20T02:24:30.774Z,100678.13
2018-02-20T02:26:59.929Z,100676.46
2018-02-20T02:29:29.035Z,100684.06
2018-02-20T02:31:58.895Z,100683.12
2018-02-20T02:34:28.024Z,100682.82
2018-02-20T02:36:57.131Z,100688.25
2018-02-20T02:39:27.001Z,100687.65
2018-02-20T02:41:56.088Z,100683.20
2018-02-20T02:44:25.214Z,100681.30
2018-02-20T02:46:54.304Z,100679.90
2018-02-20T02:49:23.423Z,100685.95
2018-02-20T02:51:52.513Z,100684.63
2018-02-20T02:54:21.633Z,100681.83
2018-02-20T02:56:51.490Z,100688.13
2018-02-20T02:59:20.599Z,100687.62
2018-02-20T03:01:49.687Z,100687.73
2018-02-20T03:04:18.795Z,100687.52
2018-02-20T03:06:47.889Z,100681.37
2018-02-20T03:09:16.993Z,100677.36
2018-02-20T03:11:46.090Z,100683.32
2018-02-20T03:14:15.216Z,100686.02
2018-02-20T03:16:45.062Z,100675.61
2018-02-20T03:19:14.178Z,100673.87
2018-02-20T03:21:43.261Z,100678.83
2018-02-20T03:24:12.346Z,100677.31
2018-02-20T03:26:41.469Z,100685.41
2018-02-20T03:29:10.573Z,100682.70
2018-02-20T03:31:39.695Z,100678.15
2018-02-20T03:34:09.567Z,100679.30
2018-02-20T03:36:38.663Z,100683.39
2018-02-20T03:39:07.799Z,100680.48
2018-02-20T03:41:36.887Z,100677.48
2018-02-20T03:44:06.768Z,100675.08
2018-02-20T03:46:37.286Z,100678.55
2018-02-20T03:49:06.421Z,100673.63
2018-02-20T03:51:35.526Z,100675.59
2018-02-20T03:54:04.597Z,100670.05
2018-02-20T03:56:33.726Z,100671.36
2018-02-20T03:59:03.577Z,100673.03
2018-02-20T04:01:32.698Z,100659.64
2018-02-20T04:04:01.772Z,100659.55
2018-02-20T04:06:30.883Z,100657.44
2018-02-20T04:08:59.986Z,100656.69
2018-02-20T04:11:29.858Z,100655.06
2018-02-20T04:13:59.710Z,100654.12
2018-02-20T04:16:28.827Z,100659.60
2018-02-20T04:18:57.921Z,100658.84
2018-02-20T04:21:27.026Z,100659.12
2018-02-20T04:23:56.142Z,100661.64
2018-02-20T04:26:26.007Z,100664.42
2018-02-20T04:28:55.118Z,100663.29
2018-02-20T04:31:24.240Z,100665.64
2018-02-20T04:33:53.349Z,100664.85
2018-02-20T04:36:23.190Z,100666.06
2018-02-20T04:38:52.305Z,100667.36
2018-02-20T04:41:22.934Z,100670.81
2018-02-20T04:43:52.043Z,100673.10
2018-02-20T04:46:21.130Z,100676.16
2018-02-20T04:48:50.221Z,100673.98
2018-02-20T04:51:19.354Z,100673.92
2018-02-20T04:53:48.465Z,100675.11
2018-02-20T04:56:17.567Z,100677.85
2018-02-20T04:58:47.422Z,100673.38
2018-02-20T05:01:16.538Z,100678.22
2018-02-20T05:03:45.639Z,100676.12
2018-02-20T05:06:14.774Z,100673.72
2018-02-20T05:08:43.861Z,100666.12
2018-02-20T05:11:12.986Z,100666.91
2018-02-20T05:13:42.847Z,100668.58
2018-02-20T05:16:11.965Z,100671.69
2018-02-20T05:18:41.818Z,100670.16
2018-02-20T05:21:10.902Z,100671.69
2018-02-20T05:23:41.074Z,100663.27
2018-02-20T05:26:10.184Z,100666.91
2018-02-20T05:28:40.059Z,100669.20
2018-02-20T05:31:09.182Z,100678.25
2018-02-20T05:33:38.288Z,100676.66
2018-02-20T05:36:08.169Z,100674.52
2018-02-20T05:38:37.277Z,100678.08
2018-02-20T05:41:06.370Z,100678.16
2018-02-20T05:43:35.500Z,100681.95
2018-02-20T05:46:05.382Z,100681.44
2018-02-20T05:48:34.490Z,100685.23
2018-02-20T05:51:03.637Z,100693.42
2018-02-20T05:53:32.730Z,100697.13
2018-02-20T05:56:02.779Z,100698.28
2018-02-20T05:58:31.890Z,100700.69
2018-02-20T06:01:01.112Z,100699.02
2018-02-20T06:03:30.224Z,100706.73
2018-02-20T06:06:00.095Z,100706.34
2018-02-20T06:08:29.214Z,100714.43
2018-02-20T06:10:59.074Z,100710.98
2018-02-20T06:13:28.202Z,100707.11
2018-02-20T06:15:57.307Z,100711.17
2018-02-20T06:18:26.422Z,100712.92
2018-02-20T06:20:56.285Z,100714.25
2018-02-20T06:23:26.167Z,100714.42
2018-02-20T06:25:56.029Z,100713.67
2018-02-20T06:28:25.145Z,100710.30
2018-02-20T06:30:54.256Z,100713.32
2018-02-20T06:33:24.109Z,100715.84
2018-02-20T06:35:53.226Z,100716.62
2018-02-20T06:38:22.330Z,100716.18
2018-02-20T06:40:51.432Z,100715.07
2018-02-20T06:43:20.521Z,100721.36
2018-02-20T06:45:49.642Z,100722.88
2018-02-20T06:48:18.726Z,100726.70
2018-02-20T06:50:47.841Z,100732.63
2018-02-20T06:53:17.705Z,100729.23
2018-02-20T06:55:46.807Z,100727.70
2018-02-20T06:58:15.921Z,100730.94
2018-02-20T07:00:45.049Z,100726.33
2018-02-20T07:03:14.893Z,100741.06
2018-02-20T07:05:44.003Z,100732.13
2018-02-20T07:08:13.108Z,100728.79
2018-02-20T07:10:42.214Z,100728.63
2018-02-20T07:13:11.316Z,100721.95
2018-02-20T07:15:40.419Z,100716.23
2018-02-20T07:18:09.521Z,100723.60
2018-02-20T07:20:38.611Z,100730.98
2018-02-20T07:23:07.793Z,100728.85
2018-02-20T07:25:36.830Z,100725.48
2018-02-20T07:28:06.737Z,100734.91
2018-02-20T07:30:36.590Z,100731.58
2018-02-20T07:33:05.706Z,100734.13
2018-02-20T07:35:34.813Z,100730.00
2018-02-20T07:38:04.711Z,100736.56
2018-02-20T07:40:33.803Z,100728.56
2018-02-20T07:43:02.929Z,100736.06
2018-02-20T07:45:32.033Z,100744.00
2018-02-20T07:48:01.130Z,100741.72
2018-02-20T07:50:30.997Z,100742.02
2018-02-20T07:53:00.121Z,100732.77
2018-02-20T07:55:29.209Z,100745.09
2018-02-20T07:57:58.311Z,100742.37
2018-02-20T08:00:27.473Z,100744.20
2018-02-20T08:02:56.587Z,100741.47
2018-02-20T08:05:25.721Z,100750.87
2018-02-20T08:07:54.831Z,100751.59
2018-02-20T08:10:24.757Z,100755.59
2018-02-20T08:12:54.653Z,100749.68
2018-02-20T08:15:23.790Z,100753.20
2018-02-20T08:17:53.650Z,100745.96
2018-02-20T08:20:22.753Z,100746.61
2018-02-20T08:22:51.866Z,100745.06
2018-02-20T08:25:21.735Z,100744.26
2018-02-20T08:27:50.841Z,100748.92
2018-02-20T08:30:19.957Z,100733.37
2018-02-20T08:32:49.068Z,100732.33
2018-02-20T08:35:18.930Z,100730.56
2018-02-20T08:37:48.081Z,100733.27
2018-02-20T08:40:17.922Z,100732.84
2018-02-20T08:42:47.070Z,100726.66
2018-02-20T08:45:16.170Z,100723.95
2018-02-20T08:47:45.300Z,100723.82
2018-02-20T08:50:15.154Z,100721.86
2018-02-20T08:52:44.284Z,100719.96
2018-02-20T08:55:13.370Z,100725.09
2018-02-20T08:57:42.506Z,100723.82
2018-02-20T09:00:12.417Z,100722.25
2018-02-20T09:02:41.477Z,100708.70
2018-02-20T09:05:10.588Z,100705.01
2018-02-20T09:07:40.456Z,100705.69
2018-02-20T09:10:10.350Z,100715.44
2018-02-20T09:12:39.454Z,100712.02
2018-02-20T09:15:08.588Z,100711.78
2018-02-20T09:17:37.687Z,100708.01
2018-02-20T09:20:06.794Z,100699.45
2018-02-20T09:22:35.890Z,100696.36
2018-02-20T09:25:05.006Z,100692.73
2018-02-20T09:27:34.858Z,100696.08
2018-02-20T09:30:03.970Z,100691.79
2018-02-20T09:32:33.063Z,100692.86
2018-02-20T09:35:02.962Z,100693.52
2018-02-20T09:37:32.050Z,100689.02
2018-02-20T09:40:01.175Z,100691.93
2018-02-20T09:42:30.283Z,100686.61
2018-02-20T09:44:59.398Z,100680.94
2018-02-20T09:47:29.252Z,100685.70
2018-02-20T09:49:58.367Z,100688.52
2018-02-20T09:52:27.463Z,100690.77
2018-02-20T09:54:56.594Z,100689.39
2018-02-20T09:57:25.675Z,100684.97
2018-02-20T09:59:54.804Z,100689.91
2018-02-20T10:02:24.712Z,100682.62
2018-02-20T10:04:53.802Z,100682.58
2018-02-20T10:07:23.662Z,100686.69
2018-02-20T10:09:52.782Z,100695.13
2018-02-20T10:12:21.875Z,100692.59
2018-02-20T10:14:50.981Z,100695.72
2018-02-20T10:17:20.064Z,100700.20
2018-02-20T10:19:49.175Z,100698.87
2018-02-20T10:22:18.280Z,100698.38
2018-02-20T10:24:47.396Z,100698.88
2018-02-20T10:27:17.265Z,100703.81
2018-02-20T10:29:46.380Z,100698.95
2018-02-20T10:32:15.486Z,100707.06
2018-02-20T10:34:44.606Z,100697.79
2018-02-20T10:37:14.493Z,100699.61
2018-02-20T10:39:43.603Z,100699.14
2018-02-20T10:42:13.479Z,100695.03
2018-02-20T10:44:42.859Z,100691.56
2018-02-20T10:47:11.995Z,100701.14
2018-02-20T10:49:41.102Z,100698.88
2018-02-20T10:52:10.208Z,100700.78
2018-02-20T10:54:39.310Z,100705.87
2018-02-20T10:57:09.178Z,100707.70
2018-02-20T10:59:38.278Z,100705.78
2018-02-20T11:02:07.409Z,100705.34
2018-02-20T11:04:36.520Z,100703.28
2018-02-20T11:07:06.386Z,100698.55
2018-02-20T11:09:35.509Z,100700.42
2018-02-20T11:12:04.633Z,100697.13
2018-02-20T11:14:33.729Z,100698.61
2018-02-20T11:17:02.851Z,100703.00
2018-02-20T11:19:31.999Z,100698.72
2018-02-20T11:22:01.955Z,100689.94
2018-02-20T11:24:31.015Z,100696.14
2018-02-20T11:27:00.894Z,100699.84
2018-02-20T11:29:29.993Z,100694.63
2018-02-20T11:31:59.123Z,100688.75
2018-02-20T11:34:28.219Z,100687.13
2018-02-20T11:36:57.333Z,100692.88
2018-02-20T11:39:27.194Z,100690.55
2018-02-20T11:41:56.318Z,100694.59
2018-02-20T11:44:26.210Z,100686.83
2018-02-20T11:46:56.104Z,100692.45
2018-02-20T11:49:25.225Z,100694.55
2018-02-20T11:51:54.326Z,100690.63
2018-02-20T11:54:23.458Z,100694.31
2018-02-20T11:56:53.330Z,100687.45
2018-02-20T11:59:23.220Z,100694.98
2018-02-20T12:01:52.313Z,100691.60
2018-02-20T12:04:22.191Z,100690.41
2018-02-20T12:06:51.319Z,100691.22
2018-02-20T12:09:20.411Z,100694.00
2018-02-20T12:11:49.552Z,100697.03
2018-02-20T12:14:18.675Z,100688.80
2018-02-20T12:16:48.542Z,100686.74
2018-02-20T12:19:18.443Z,100686.16
2018-02-20T12:21:49.026Z,100680.70
2018-02-20T12:24:18.132Z,100687.20
2018-02-20T12:26:47.249Z,100685.02
2018-02-20T12:29:16.374Z,100680.98
2018-02-20T12:31:45.503Z,100683.99
2018-02-20T12:34:15.354Z,100678.59
2018-02-20T12:36:44.460Z,100682.11
2018-02-20T12:39:13.572Z,100674.83
2018-02-20T12:41:42.659Z,100674.48
2018-02-20T12:44:11.778Z,100672.73
2018-02-20T12:46:41.678Z,100673.87
2018-02-20T12:49:10.774Z,100669.01
2018-02-20T12:51:39.884Z,100664.61
2018-02-20T12:54:09.798Z,100666.23
2018-02-20T12:56:39.801Z,100662.38
2018-02-20T12:59:08.820Z,100660.45
2018-02-20T13:01:38.672Z,100660.63
2018-02-20T13:04:07.768Z,100659.43
2018-02-20T13:06:36.922Z,100663.20
2018-02-20T13:09:06.800Z,100657.86
2018-02-20T13:11:36.678Z,100659.40
2018-02-20T13:14:05.794Z,100654.74
2018-02-20T13:16:34.903Z,100651.19
2018-02-20T13:19:04.004Z,100652.00
2018-02-20T13:21:33.098Z,100648.89
2018-02-20T13:24:02.199Z,100650.37
2018-02-20T13:26:31.318Z,100647.86
2018-02-20T13:29:01.214Z,100653.58
2018-02-20T13:31:30.318Z,100647.51
2018-02-20T13:33:59.431Z,100650.44
2018-02-20T13:36:28.531Z,100651.80
2018-02-20T13:38:58.424Z,100641.41
2018-02-20T13:41:27.551Z,100645.40
2018-02-20T13:43:56.658Z,100646.05
2018-02-20T13:46:25.793Z,100641.66
2018-02-20T13:48:54.902Z,100634.73
2018-02-20T13:51:24.038Z,100640.16
2018-02-20T13:53:53.144Z,100641.31
2018-02-20T13:56:22.230Z,100638.80
2018-02-20T13:58:51.375Z,100644.52
2018-02-20T14:01:20.510Z,100646.70
2018-02-20T14:03:50.402Z,100642.95
2018-02-20T14:06:19.516Z,100635.02
2018-02-20T14:08:49.397Z,100634.34
2018-02-20T14:11:18.502Z,100645.23
2018-02-20T14:13:47.606Z,100651.09
2018-02-20T14:16:16.704Z,100642.89
2018-02-20T14:18:45.826Z,100644.06
2018-02-20T14:21:15.701Z,100643.96
2018-02-20T14:23:44.818Z,100646.61
2018-02-20T14:26:14.703Z,100647.05
2018-02-20T14:28:44.612Z,100647.32
2018-02-20T14:31:13.718Z,100644.30
2018-02-20T14:33:42.848Z,100642.81
2018-02-20T14:36:11.948Z,100641.25
2018-02-20T14:38:42.656Z,100638.69
2018-02-20T14:41:11.751Z,100637.19
2018-02-20T14:43:40.900Z,100635.65
2018-02-20T14:46:10.007Z,100636.40
2018-02-20T14:48:39.112Z,100641.38
2018-02-20T14:51:08.234Z,100640.36
2018-02-20T14:53:37.352Z,100629.78
2018-02-20T14:56:06.454Z,100631.76
2018-02-20T14:58:36.347Z,100636.80
2018-02-20T15:01:05.469Z,100631.23
2018-02-20T15:03:35.333Z,100634.03
2018-02-20T15:06:04.454Z,100634.95
2018-02-20T15:08:33.542Z,100640.75
2018-02-20T15:11:02.685Z,100637.92
2018-02-20T15:13:31.782Z,100643.09
2018-02-20T15:16:00.898Z,100632.31
2018-02-20T15:18:30.003Z,100643.16
2018-02-20T15:20:59.111Z,100633.31
2018-02-20T15:23:28.236Z,100639.82
2018-02-20T15:25:57.334Z,100639.97
2018-02-20T15:28:26.478Z,100633.01
2018-02-20T15:30:55.571Z,100633.59
2018-02-20T15:33:24.678Z,100635.61
2018-02-20T15:35:53.784Z,100639.45
2018-02-20T15:38:23.682Z,100639.80
2018-02-20T15:40:52.817Z,100647.48
2018-02-20T15:43:21.944Z,100644.64
2018-02-20T15:45:51.811Z,100647.00
2018-02-20T15:48:20.937Z,100644.87
2018-02-20T15:50:50.814Z,100640.96
2018-02-20T15:53:20.728Z,100646.63
2018-02-20T15:55:50.579Z,100650.81
2018-02-20T15:58:19.750Z,100645.42
2018-02-20T16:00:48.827Z,100645.81
2018-02-20T16:03:17.940Z,100650.92
2018-02-20T16:05:47.074Z,100652.51
2018-02-20T16:08:16.977Z,100651.88
2018-02-20T16:10:46.867Z,100659.48
2018-02-20T16:13:16.000Z,100659.68
2018-02-20T16:15:51.321Z,100659.83
2018-02-20T16:18:20.475Z,100665.65
2018-02-20T16:20:49.583Z,100666.86
2018-02-20T16:23:18.703Z,100667.17
2018-02-20T16:25:47.841Z,100667.05
2018-02-20T16:28:17.704Z,100670.16
2018-02-20T16:30:46.822Z,100670.22
2018-02-20T16:33:16.044Z,100673.30
2018-02-20T16:35:45.963Z,100667.17
2018-02-20T16:38:15.849Z,100674.62
2018-02-20T16:40:44.972Z,100677.30
2018-02-20T16:43:14.824Z,100677.53
2018-02-20T16:45:43.939Z,100681.60
2018-02-20T16:48:13.075Z,100676.91
2018-02-20T16:50:42.213Z,100682.45
2018-02-20T16:53:11.363Z,100693.27
2018-02-20T16:55:41.246Z,100684.23
2018-02-20T16:58:10.362Z,100691.94
2018-02-20T17:00:39.492Z,100691.78
2018-02-20T17:03:08.603Z,100690.34
2018-02-20T17:05:37.756Z,100698.21
2018-02-20T17:08:06.859Z,100705.72
2018-02-20T17:10:36.727Z,100715.82
2018-02-20T17:13:05.848Z,100709.95
2018-02-20T17:15:35.024Z,100717.00
2018-02-20T17:18:04.225Z,100726.43
2018-02-20T17:20:33.304Z,100716.91
2018-02-20T17:23:02.490Z,100727.50
2018-02-20T17:25:31.619Z,100727.61
2018-02-20T17:28:00.750Z,100734.90
2018-02-20T17:30:29.840Z,100737.21
2018-02-20T17:32:58.994Z,100746.11
2018-02-20T17:35:28.097Z,100743.34
2018-02-20T17:38:00.703Z,100746.37
2018-02-20T17:40:27.109Z,100752.89
2018-02-20T17:42:56.237Z,100753.11
2018-02-20T17:45:25.343Z,100752.75
2018-02-20T17:47:55.239Z,100762.94
2018-02-20T17:50:24.940Z,100769.50
2018-02-20T17:52:54.073Z,100774.07
2018-02-20T17:55:23.959Z,100772.80
2018-02-20T17:57:53.091Z,100777.06
2018-02-20T18:00:23.080Z,100783.55
2018-02-20T18:02:52.195Z,100781.95
2018-02-20T18:05:22.079Z,100785.08
2018-02-20T18:07:51.215Z,100786.06
2018-02-20T18:10:21.108Z,100782.93
2018-02-20T18:12:50.994Z,100790.27
2018-02-20T18:15:20.104Z,100795.05
2018-02-20T18:17:49.203Z,100794.98
2018-02-20T18:20:18.355Z,100796.13
2018-02-20T18:22:47.525Z,100801.17
2018-02-20T18:25:16.621Z,100804.91
2018-02-20T18:27:45.750Z,100814.25
2018-02-20T18:30:14.876Z,100819.98
2018-02-20T18:32:44.002Z,100810.37
2018-02-20T18:35:13.936Z,100817.06
2018-02-20T18:37:43.051Z,100818.38
2018-02-20T18:40:12.173Z,100828.07
2018-02-20T18:42:41.300Z,100825.65
2018-02-20T18:45:10.389Z,100828.77
2018-02-20T18:47:39.509Z,100832.89
2018-02-20T18:50:09.376Z,100827.81
2018-02-20T18:52:38.535Z,100829.67
2018-02-20T18:55:07.637Z,100821.64
2018-02-20T18:57:36.780Z,100822.53
2018-02-20T19:00:05.875Z,100833.76
2018-02-20T19:02:35.011Z,100838.15
2018-02-20T19:05:04.143Z,100831.13
2018-02-20T19:07:33.258Z,100830.32
2018-02-20T19:10:02.366Z,100827.58
2018-02-20T19:12:31.530Z,100831.85
2018-02-20T19:15:00.654Z,100833.11
2018-02-20T19:17:29.775Z,100834.81
2018-02-20T19:19:59.661Z,100834.08
2018-02-20T19:22:28.790Z,100835.11
2018-02-20T19:24:58.661Z,100840.97
2018-02-20T19:27:27.774Z,100842.97
2018-02-20T19:29:56.887Z,100844.98
2018-02-20T19:32:26.644Z,100845.84
2018-02-20T19:34:55.766Z,100852.45
2018-02-20T19:37:24.908Z,100854.15
2018-02-20T19:39:54.763Z,100853.83
2018-02-20T19:42:24.669Z,100848.69
2018-02-20T19:44:53.792Z,100850.58
2018-02-20T19:47:22.935Z,100852.68
2018-02-20T19:49:52.815Z,100851.38
2018-02-20T19:52:21.939Z,100848.39
2018-02-20T19:54:51.075Z,100845.25
2018-02-20T19:57:20.985Z,100848.69
2018-02-20T19:59:50.103Z,100852.11
2018-02-20T20:02:19.208Z,100857.44
2018-02-20T20:04:48.348Z,100857.39
2018-02-20T20:07:17.464Z,100855.56
2018-02-20T20:09:46.558Z,100852.52
2018-02-20T20:12:15.694Z,100854.81
2018-02-20T20:14:44.822Z,100849.73
2018-02-20T20:17:13.969Z,100855.96
2018-02-20T20:19:43.086Z,100862.44
2018-02-20T20:22:12.295Z,100855.60
2018-02-20T20:24:41.374Z,100854.84
2018-02-20T20:27:10.496Z,100854.77
2018-02-20T20:29:40.396Z,100849.55
2018-02-20T20:32:09.528Z,100856.84
2018-02-20T20:34:39.407Z,100861.46
2018-02-20T20:37:08.545Z,100867.42
2018-02-20T20:39:37.703Z,100866.48
2018-02-20T20:42:06.819Z,100866.41
2018-02-20T20:44:36.728Z,100871.81
2018-02-20T20:47:06.633Z,100869.98
2018-02-20T20:49:35.752Z,100862.88
2018-02-20T20:52:05.652Z,100871.22
2018-02-20T20:54:35.531Z,100877.21
2018-02-20T20:57:04.639Z,100875.73
2018-02-20T20:59:33.782Z,100876.63
2018-02-20T21:02:02.955Z,100879.38
2018-02-20T21:04:32.090Z,100871.68
2018-02-20T21:07:01.230Z,100878.45
2018-02-20T21:09:30.654Z,100876.49
2018-02-20T21:12:01.090Z,100878.06
2018-02-20T21:14:30.991Z,100876.10
2018-02-20T21:17:00.149Z,100872.66
2018-02-20T21:19:29.276Z,100875.41
2018-02-20T21:21:58.397Z,100876.13
2018-02-20T21:24:28.288Z,100863.86
2018-02-20T21:26:57.447Z,100877.80
2018-02-20T21:29:26.544Z,100874.79
2018-02-20T21:31:55.671Z,100871.95
2018-02-20T21:34:24.801Z,100867.20
2018-02-20T21:36:53.946Z,100888.70
2018-02-20T21:39:23.798Z,100883.20
2018-02-20T21:41:52.918Z,100883.53
2018-02-20T21:44:22.008Z,100886.73
2018-02-20T21:46:51.913Z,100888.84
2018-02-20T21:49:21.787Z,100883.70
2018-02-20T21:51:50.923Z,100887.30
2018-02-20T21:54:20.806Z,100884.45
2018-02-20T21:56:49.927Z,100887.69
2018-02-20T21:59:19.811Z,100892.70
2018-02-20T22:01:48.953Z,100894.27
2018-02-20T22:04:18.852Z,100894.48
2018-02-20T22:06:47.963Z,100894.64
2018-02-20T22:09:17.095Z,100900.22
2018-02-20T22:11:46.216Z,100898.77
2018-02-20T22:14:15.344Z,100898.39
2018-02-20T22:16:45.219Z,100893.98
2018-02-20T22:19:14.349Z,100905.92
2018-02-20T22:21:44.195Z,100904.00
2018-02-20T22:24:13.321Z,100903.22
2018-02-20T22:26:42.415Z,100906.89
2018-02-20T22:29:11.540Z,100914.72
2018-02-20T22:31:40.638Z,100910.38
2018-02-20T22:34:09.753Z,100913.12
2018-02-20T22:36:38.854Z,100915.94
2018-02-20T22:39:07.973Z,100918.69
2018-02-20T22:41:37.092Z,100922.56
2018-02-20T22:44:06.990Z,100922.84
2018-02-20T22:46:36.094Z,100923.90
2018-02-20T22:49:05.210Z,100914.70
2018-02-20T22:51:34.337Z,100919.64
2018-02-20T22:54:04.202Z,100916.94
2018-02-20T22:56:33.309Z,100917.61
2018-02-20T22:59:02.434Z,100923.79
2018-02-20T23:01:31.564Z,100920.49
2018-02-20T23:04:00.676Z,100928.79
2018-02-20T23:06:29.799Z,100927.06
2018-02-20T23:08:58.900Z,100930.27
2018-02-20T23:11:45.735Z,100935.75
2018-02-20T23:14:15.616Z,100934.29
2018-02-20T23:16:44.758Z,100933.16
2018-02-20T23:19:14.642Z,100946.61
2018-02-20T23:21:44.677Z,100939.02
2018-02-20T23:24:13.796Z,100948.22
2018-02-20T23:26:43.683Z,100949.61
2018-02-20T23:29:12.790Z,100949.91
2018-02-20T23:31:41.935Z,100946.69
2018-02-20T23:34:11.035Z,100953.38
2018-02-20T23:36:40.186Z,100960.00
2018-02-20T23:39:10.056Z,100954.67
2018-02-20T23:41:39.922Z,100966.20
2018-02-20T23:44:09.066Z,100966.80
2018-02-20T23:46:38.167Z,100957.39
2018-02-20T23:49:08.091Z,100969.75
2018-02-20T23:51:37.198Z,100966.34
2018-02-20T23:54:06.315Z,100967.61
2018-02-20T23:56:35.422Z,100970.80
2018-02-20T23:59:04.551Z,100972.75
